sensor_id;sensor_type;location;lat;lon;timestamp;pressure;altitude;pressure_sealevel;temperature;humidity
28312;BME280;15572;48.810;9.148;2023-05-25T00:03:59;98508.28;;;8.42;93.33
28312;BME280;15572;48.810;9.148;2023-05-25T00:08:57;98507.91;;;8.45;93.71
28312;BME280;15572;48.810;9.148;2023-05-25T00:13:53;98510.38;;;8.63;93.44
28312;BME280;15572;48.810;9.148;2023-05-25T00:18:51;98497.81;;;8.78;93.48
28312;BME280;15572;48.810;9.148;2023-05-25T00:23:51;98501.78;;;8.90;93.52
28312;BME280;15572;48.810;9.148;2023-05-25T00:28:47;98505.25;;;8.99;93.53
28312;BME280;15572;48.810;9.148;2023-05-25T00:33:44;98495.31;;;8.99;92.95
28312;BME280;15572;48.810;9.148;2023-05-25T00:38:42;98501.38;;;9.01;92.73
28312;BME280;15572;48.810;9.148;2023-05-25T00:43:38;98494.84;;;9.18;91.80
28312;BME280;15572;48.810;9.148;2023-05-25T00:48:35;98499.31;;;9.26;92.13
28312;BME280;15572;48.810;9.148;2023-05-25T00:53:33;98489.53;;;9.48;90.60
28312;BME280;15572;48.810;9.148;2023-05-25T00:58:33;98485.19;;;9.61;89.09
28312;BME280;15572;48.810;9.148;2023-05-25T01:03:34;98489.81;;;9.67;88.44
28312;BME280;15572;48.810;9.148;2023-05-25T01:08:33;98475.13;;;9.70;87.21
28312;BME280;15572;48.810;9.148;2023-05-25T01:13:30;98481.53;;;9.69;87.44
28312;BME280;15572;48.810;9.148;2023-05-25T01:18:28;98483.97;;;9.64;87.06
28312;BME280;15572;48.810;9.148;2023-05-25T01:23:32;98487.28;;;9.51;87.90
28312;BME280;15572;48.810;9.148;2023-05-25T01:28:32;98478.03;;;9.46;88.40
28312;BME280;15572;48.810;9.148;2023-05-25T01:33:30;98481.41;;;9.48;88.77
28312;BME280;15572;48.810;9.148;2023-05-25T01:38:28;98477.97;;;9.54;89.58
28312;BME280;15572;48.810;9.148;2023-05-25T01:43:25;98481.59;;;9.46;90.29
28312;BME280;15572;48.810;9.148;2023-05-25T01:48:24;98484.97;;;9.25;91.50
28312;BME280;15572;48.810;9.148;2023-05-25T01:53:30;98485.34;;;9.00;92.12
28312;BME280;15572;48.810;9.148;2023-05-25T01:58:33;98480.16;;;8.67;94.58
28312;BME280;15572;48.810;9.148;2023-05-25T02:03:30;98490.88;;;8.44;95.55
28312;BME280;15572;48.810;9.148;2023-05-25T02:08:28;98481.16;;;8.35;96.34
28312;BME280;15572;48.810;9.148;2023-05-25T02:13:25;98475.34;;;8.08;98.49
28312;BME280;15572;48.810;9.148;2023-05-25T02:18:21;98480.97;;;7.90;100.00
28312;BME280;15572;48.810;9.148;2023-05-25T02:23:18;98467.16;;;7.77;100.00
28312;BME280;15572;48.810;9.148;2023-05-25T02:28:16;98473.44;;;7.61;100.00
28312;BME280;15572;48.810;9.148;2023-05-25T02:33:12;98466.88;;;7.55;100.00
28312;BME280;15572;48.810;9.148;2023-05-25T02:38:09;98464.69;;;7.43;100.00
28312;BME280;15572;48.810;9.148;2023-05-25T02:43:05;98464.53;;;7.28;100.00
28312;BME280;15572;48.810;9.148;2023-05-25T02:48:03;98466.91;;;7.23;100.00
28312;BME280;15572;48.810;9.148;2023-05-25T02:53:00;98471.44;;;7.06;100.00
28312;BME280;15572;48.810;9.148;2023-05-25T02:57:57;98477.84;;;7.05;100.00
28312;BME280;15572;48.810;9.148;2023-05-25T03:02:54;98487.94;;;7.03;100.00
28312;BME280;15572;48.810;9.148;2023-05-25T03:07:52;98480.88;;;7.02;100.00
28312;BME280;15572;48.810;9.148;2023-05-25T03:12:49;98486.44;;;7.09;100.00
28312;BME280;15572;48.810;9.148;2023-05-25T03:17:45;98496.34;;;7.00;100.00
28312;BME280;15572;48.810;9.148;2023-05-25T03:22:42;98493.31;;;6.87;100.00
28312;BME280;15572;48.810;9.148;2023-05-25T03:27:40;98500.38;;;6.88;100.00
28312;BME280;15572;48.810;9.148;2023-05-25T03:32:36;98501.22;;;6.89;100.00
28312;BME280;15572;48.810;9.148;2023-05-25T03:37:32;98499.38;;;6.97;100.00
28312;BME280;15572;48.810;9.148;2023-05-25T03:42:29;98496.19;;;7.02;100.00
28312;BME280;15572;48.810;9.148;2023-05-25T03:47:27;98487.63;;;6.98;100.00
28312;BME280;15572;48.810;9.148;2023-05-25T03:52:23;98496.31;;;6.76;100.00
28312;BME280;15572;48.810;9.148;2023-05-25T03:57:20;98508.38;;;6.64;100.00
28312;BME280;15572;48.810;9.148;2023-05-25T04:02:16;98507.03;;;6.60;100.00
28312;BME280;15572;48.810;9.148;2023-05-25T04:07:14;98514.47;;;6.74;100.00
28312;BME280;15572;48.810;9.148;2023-05-25T04:12:10;98522.72;;;6.81;100.00
28312;BME280;15572;48.810;9.148;2023-05-25T04:17:07;98536.38;;;6.95;100.00
28312;BME280;15572;48.810;9.148;2023-05-25T04:22:04;98528.50;;;7.10;100.00
28312;BME280;15572;48.810;9.148;2023-05-25T04:27:01;98524.81;;;7.19;100.00
28312;BME280;15572;48.810;9.148;2023-05-25T04:31:58;98519.59;;;7.34;100.00
28312;BME280;15572;48.810;9.148;2023-05-25T04:36:54;98520.94;;;7.46;100.00
28312;BME280;15572;48.810;9.148;2023-05-25T04:41:51;98528.84;;;7.55;100.00
28312;BME280;15572;48.810;9.148;2023-05-25T04:46:49;98532.38;;;7.64;100.00
28312;BME280;15572;48.810;9.148;2023-05-25T04:51:46;98531.00;;;7.76;100.00
28312;BME280;15572;48.810;9.148;2023-05-25T04:56:43;98533.84;;;7.91;100.00
28312;BME280;15572;48.810;9.148;2023-05-25T05:01:40;98537.03;;;8.11;100.00
28312;BME280;15572;48.810;9.148;2023-05-25T05:06:38;98539.81;;;8.33;100.00
28312;BME280;15572;48.810;9.148;2023-05-25T05:11:34;98545.53;;;8.47;100.00
28312;BME280;15572;48.810;9.148;2023-05-25T05:16:31;98536.38;;;8.56;100.00
28312;BME280;15572;48.810;9.148;2023-05-25T05:21:29;98553.69;;;8.69;100.00
28312;BME280;15572;48.810;9.148;2023-05-25T05:26:27;98564.06;;;8.88;100.00
28312;BME280;15572;48.810;9.148;2023-05-25T05:31:24;98568.72;;;9.25;100.00
28312;BME280;15572;48.810;9.148;2023-05-25T05:36:21;98566.44;;;9.60;100.00
28312;BME280;15572;48.810;9.148;2023-05-25T05:41:18;98570.63;;;9.85;98.46
28312;BME280;15572;48.810;9.148;2023-05-25T05:46:15;98568.22;;;10.05;95.60
28312;BME280;15572;48.810;9.148;2023-05-25T05:51:12;98570.78;;;10.21;94.57
28312;BME280;15572;48.810;9.148;2023-05-25T05:56:15;98583.03;;;10.32;92.58
28312;BME280;15572;48.810;9.148;2023-05-25T06:01:12;98590.78;;;10.49;91.36
28312;BME280;15572;48.810;9.148;2023-05-25T06:06:10;98593.50;;;10.64;90.17
28312;BME280;15572;48.810;9.148;2023-05-25T06:11:07;98591.53;;;10.87;88.10
28312;BME280;15572;48.810;9.148;2023-05-25T06:16:04;98595.72;;;11.05;87.19
28312;BME280;15572;48.810;9.148;2023-05-25T06:21:00;98605.31;;;11.07;85.50
28312;BME280;15572;48.810;9.148;2023-05-25T06:26:02;98611.47;;;11.16;86.51
28312;BME280;15572;48.810;9.148;2023-05-25T06:30:58;98603.97;;;11.18;84.44
28312;BME280;15572;48.810;9.148;2023-05-25T06:35:55;98604.91;;;11.25;85.26
28312;BME280;15572;48.810;9.148;2023-05-25T06:40:54;98603.38;;;11.37;85.81
28312;BME280;15572;48.810;9.148;2023-05-25T06:45:52;98614.53;;;11.49;84.91
28312;BME280;15572;48.810;9.148;2023-05-25T06:50:48;98609.41;;;11.54;84.48
28312;BME280;15572;48.810;9.148;2023-05-25T06:55:45;98614.94;;;11.67;84.12
28312;BME280;15572;48.810;9.148;2023-05-25T07:00:41;98629.56;;;11.87;83.38
28312;BME280;15572;48.810;9.148;2023-05-25T07:05:39;98626.59;;;12.03;82.26
28312;BME280;15572;48.810;9.148;2023-05-25T07:10:36;98631.13;;;12.17;81.94
28312;BME280;15572;48.810;9.148;2023-05-25T07:15:32;98619.44;;;12.23;81.22
28312;BME280;15572;48.810;9.148;2023-05-25T07:20:29;98627.09;;;12.41;81.81
28312;BME280;15572;48.810;9.148;2023-05-25T07:25:27;98634.06;;;12.50;82.01
28312;BME280;15572;48.810;9.148;2023-05-25T07:30:23;98634.72;;;12.52;81.65
28312;BME280;15572;48.810;9.148;2023-05-25T07:35:20;98637.91;;;12.62;81.06
28312;BME280;15572;48.810;9.148;2023-05-25T07:40:16;98635.06;;;12.71;81.31
28312;BME280;15572;48.810;9.148;2023-05-25T07:45:14;98631.19;;;12.86;81.52
28312;BME280;15572;48.810;9.148;2023-05-25T07:50:12;98639.19;;;13.01;80.19
28312;BME280;15572;48.810;9.148;2023-05-25T07:55:09;98634.50;;;13.23;79.61
28312;BME280;15572;48.810;9.148;2023-05-25T08:00:06;98633.81;;;13.62;79.31
28312;BME280;15572;48.810;9.148;2023-05-25T08:05:05;98639.06;;;13.70;78.89
28312;BME280;15572;48.810;9.148;2023-05-25T08:10:02;98629.88;;;13.84;77.47
28312;BME280;15572;48.810;9.148;2023-05-25T08:14:58;98626.31;;;13.77;77.28
28312;BME280;15572;48.810;9.148;2023-05-25T08:19:55;98618.78;;;13.72;79.37
28312;BME280;15572;48.810;9.148;2023-05-25T08:24:53;98624.19;;;13.66;79.87
28312;BME280;15572;48.810;9.148;2023-05-25T08:29:49;98625.88;;;13.80;80.48
28312;BME280;15572;48.810;9.148;2023-05-25T08:34:46;98632.22;;;14.13;79.99
28312;BME280;15572;48.810;9.148;2023-05-25T08:39:42;98632.03;;;14.48;77.15
28312;BME280;15572;48.810;9.148;2023-05-25T08:44:40;98637.47;;;14.61;76.12
28312;BME280;15572;48.810;9.148;2023-05-25T08:49:38;98645.66;;;15.38;75.27
28312;BME280;15572;48.810;9.148;2023-05-25T08:54:36;98634.75;;;15.32;73.14
28312;BME280;15572;48.810;9.148;2023-05-25T08:59:37;98644.38;;;15.41;73.78
28312;BME280;15572;48.810;9.148;2023-05-25T09:04:37;98632.50;;;15.67;73.78
28312;BME280;15572;48.810;9.148;2023-05-25T09:09:34;98635.69;;;15.64;72.75
28312;BME280;15572;48.810;9.148;2023-05-25T09:14:32;98637.91;;;15.80;70.19
28312;BME280;15572;48.810;9.148;2023-05-25T09:19:29;98629.44;;;15.88;71.32
28312;BME280;15572;48.810;9.148;2023-05-25T09:24:27;98636.03;;;16.36;69.81
28312;BME280;15572;48.810;9.148;2023-05-25T09:29:24;98623.69;;;16.52;68.92
28312;BME280;15572;48.810;9.148;2023-05-25T09:34:21;98635.72;;;16.76;67.89
28312;BME280;15572;48.810;9.148;2023-05-25T09:39:17;98632.84;;;17.07;67.40
28312;BME280;15572;48.810;9.148;2023-05-25T09:44:15;98632.91;;;17.37;65.54
28312;BME280;15572;48.810;9.148;2023-05-25T09:49:12;98641.78;;;17.51;63.89
28312;BME280;15572;48.810;9.148;2023-05-25T09:54:09;98646.34;;;18.05;64.07
28312;BME280;15572;48.810;9.148;2023-05-25T09:59:06;98641.06;;;18.45;63.82
28312;BME280;15572;48.810;9.148;2023-05-25T10:04:04;98637.13;;;18.41;62.40
28312;BME280;15572;48.810;9.148;2023-05-25T10:09:01;98635.78;;;18.43;63.33
28312;BME280;15572;48.810;9.148;2023-05-25T10:13:59;98641.50;;;18.30;62.87
28312;BME280;15572;48.810;9.148;2023-05-25T10:19:01;98637.31;;;18.16;63.34
28312;BME280;15572;48.810;9.148;2023-05-25T10:24:03;98638.25;;;18.22;63.20
28312;BME280;15572;48.810;9.148;2023-05-25T10:29:02;98623.44;;;18.52;62.87
28312;BME280;15572;48.810;9.148;2023-05-25T10:34:00;98641.13;;;18.68;63.06
28312;BME280;15572;48.810;9.148;2023-05-25T10:38:57;98636.72;;;18.79;62.74
28312;BME280;15572;48.810;9.148;2023-05-25T10:43:55;98627.88;;;18.88;62.75
28312;BME280;15572;48.810;9.148;2023-05-25T10:48:51;98636.22;;;19.05;60.49
28312;BME280;15572;48.810;9.148;2023-05-25T10:53:58;98632.34;;;19.29;60.16
28312;BME280;15572;48.810;9.148;2023-05-25T10:58:57;98636.41;;;19.39;60.99
28312;BME280;15572;48.810;9.148;2023-05-25T11:03:55;98628.47;;;19.65;60.40
28312;BME280;15572;48.810;9.148;2023-05-25T11:08:53;98624.88;;;19.93;59.75
28312;BME280;15572;48.810;9.148;2023-05-25T11:13:50;98629.66;;;19.69;56.54
28312;BME280;15572;48.810;9.148;2023-05-25T11:18:52;98627.88;;;19.63;57.16
28312;BME280;15572;48.810;9.148;2023-05-25T11:23:53;98615.28;;;19.39;56.71
28312;BME280;15572;48.810;9.148;2023-05-25T11:28:50;98622.56;;;19.73;56.39
28312;BME280;15572;48.810;9.148;2023-05-25T11:33:47;98616.59;;;20.22;55.10
28312;BME280;15572;48.810;9.148;2023-05-25T11:38:47;98618.53;;;19.93;54.66
28312;BME280;15572;48.810;9.148;2023-05-25T11:43:45;98618.41;;;20.16;56.03
28312;BME280;15572;48.810;9.148;2023-05-25T11:48:42;98616.56;;;20.83;53.50
28312;BME280;15572;48.810;9.148;2023-05-25T11:53:43;98610.50;;;21.41;52.22
28312;BME280;15572;48.810;9.148;2023-05-25T11:58:41;98616.84;;;21.42;52.54
28312;BME280;15572;48.810;9.148;2023-05-25T12:03:40;98617.69;;;21.04;49.50
28312;BME280;15572;48.810;9.148;2023-05-25T12:08:36;98615.50;;;20.89;51.25
28312;BME280;15572;48.810;9.148;2023-05-25T12:13:33;98614.88;;;20.82;52.33
28312;BME280;15572;48.810;9.148;2023-05-25T12:18:31;98606.31;;;21.00;50.71
28312;BME280;15572;48.810;9.148;2023-05-25T12:23:28;98608.75;;;20.97;50.48
28312;BME280;15572;48.810;9.148;2023-05-25T12:28:24;98617.47;;;21.11;51.47
28312;BME280;15572;48.810;9.148;2023-05-25T12:33:21;98613.38;;;21.13;50.23
28312;BME280;15572;48.810;9.148;2023-05-25T12:38:19;98616.31;;;21.07;50.17
28312;BME280;15572;48.810;9.148;2023-05-25T12:43:16;98620.09;;;21.00;50.64
28312;BME280;15572;48.810;9.148;2023-05-25T12:48:12;98610.81;;;21.23;50.21
28312;BME280;15572;48.810;9.148;2023-05-25T12:53:09;98614.47;;;21.29;50.77
28312;BME280;15572;48.810;9.148;2023-05-25T12:58:07;98611.41;;;21.25;49.58
28312;BME280;15572;48.810;9.148;2023-05-25T13:03:04;98604.22;;;21.46;50.56
28312;BME280;15572;48.810;9.148;2023-05-25T13:08:02;98600.44;;;22.28;48.00
28312;BME280;15572;48.810;9.148;2023-05-25T13:12:59;98594.38;;;21.77;47.91
28312;BME280;15572;48.810;9.148;2023-05-25T13:17:57;98602.44;;;22.05;48.30
28312;BME280;15572;48.810;9.148;2023-05-25T13:22:54;98594.50;;;22.14;47.44
28312;BME280;15572;48.810;9.148;2023-05-25T13:27:50;98592.34;;;22.48;47.13
28312;BME280;15572;48.810;9.148;2023-05-25T13:32:48;98597.06;;;22.52;46.45
28312;BME280;15572;48.810;9.148;2023-05-25T13:37:46;98589.44;;;22.64;45.77
28312;BME280;15572;48.810;9.148;2023-05-25T13:42:43;98594.22;;;23.21;45.32
28312;BME280;15572;48.810;9.148;2023-05-25T13:47:39;98581.56;;;23.35;45.04
28312;BME280;15572;48.810;9.148;2023-05-25T13:52:37;98580.88;;;23.08;45.78
28312;BME280;15572;48.810;9.148;2023-05-25T13:57:35;98581.38;;;22.95;45.78
28312;BME280;15572;48.810;9.148;2023-05-25T14:02:31;98582.09;;;23.27;45.23
28312;BME280;15572;48.810;9.148;2023-05-25T14:07:29;98582.22;;;22.95;45.25
28312;BME280;15572;48.810;9.148;2023-05-25T14:12:26;98574.34;;;22.77;44.86
28312;BME280;15572;48.810;9.148;2023-05-25T14:17:24;98571.97;;;22.91;45.10
28312;BME280;15572;48.810;9.148;2023-05-25T14:22:21;98567.72;;;22.41;45.40
28312;BME280;15572;48.810;9.148;2023-05-25T14:27:17;98568.94;;;22.23;45.95
28312;BME280;15572;48.810;9.148;2023-05-25T14:32:15;98568.81;;;22.08;46.61
28312;BME280;15572;48.810;9.148;2023-05-25T14:37:13;98565.75;;;22.05;46.25
28312;BME280;15572;48.810;9.148;2023-05-25T14:42:09;98571.16;;;22.21;45.85
28312;BME280;15572;48.810;9.148;2023-05-25T14:47:06;98568.94;;;22.55;45.95
28312;BME280;15572;48.810;9.148;2023-05-25T14:52:03;98578.34;;;22.96;45.14
28312;BME280;15572;48.810;9.148;2023-05-25T14:57:00;98567.59;;;23.57;44.22
28312;BME280;15572;48.810;9.148;2023-05-25T15:01:57;98574.22;;;23.56;43.68
28312;BME280;15572;48.810;9.148;2023-05-25T15:06:53;98581.13;;;23.54;43.43
28312;BME280;15572;48.810;9.148;2023-05-25T15:11:50;98574.13;;;24.28;43.31
28312;BME280;15572;48.810;9.148;2023-05-25T15:16:48;98564.16;;;24.38;42.22
28312;BME280;15572;48.810;9.148;2023-05-25T15:21:44;98564.94;;;23.87;41.99
28312;BME280;15572;48.810;9.148;2023-05-25T15:26:41;98570.69;;;23.66;42.80
28312;BME280;15572;48.810;9.148;2023-05-25T15:31:37;98571.06;;;23.27;43.78
28312;BME280;15572;48.810;9.148;2023-05-25T15:36:35;98573.63;;;22.92;43.67
28312;BME280;15572;48.810;9.148;2023-05-25T15:41:32;98563.50;;;22.71;44.51
28312;BME280;15572;48.810;9.148;2023-05-25T15:46:28;98561.09;;;22.37;45.43
28312;BME280;15572;48.810;9.148;2023-05-25T15:51:25;98561.50;;;22.24;45.65
28312;BME280;15572;48.810;9.148;2023-05-25T15:56:22;98553.44;;;22.17;45.56
28312;BME280;15572;48.810;9.148;2023-05-25T16:01:20;98555.19;;;22.29;45.90
28312;BME280;15572;48.810;9.148;2023-05-25T16:06:16;98563.75;;;22.27;46.11
28312;BME280;15572;48.810;9.148;2023-05-25T16:11:13;98554.00;;;22.14;46.34
28312;BME280;15572;48.810;9.148;2023-05-25T16:16:11;98555.78;;;21.99;46.72
28312;BME280;15572;48.810;9.148;2023-05-25T16:21:07;98562.19;;;22.04;46.70
28312;BME280;15572;48.810;9.148;2023-05-25T16:26:04;98566.84;;;22.04;46.61
28312;BME280;15572;48.810;9.148;2023-05-25T16:31:03;98560.22;;;22.00;46.48
28312;BME280;15572;48.810;9.148;2023-05-25T16:36:01;98567.09;;;22.02;46.57
28312;BME280;15572;48.810;9.148;2023-05-25T16:40:58;98553.88;;;21.99;46.69
28312;BME280;15572;48.810;9.148;2023-05-25T16:45:54;98553.81;;;22.26;46.55
28312;BME280;15572;48.810;9.148;2023-05-25T16:50:50;98549.97;;;21.95;47.30
28312;BME280;15572;48.810;9.148;2023-05-25T16:55:48;98552.13;;;21.93;48.06
28312;BME280;15572;48.810;9.148;2023-05-25T17:00:45;98552.31;;;21.87;47.52
28312;BME280;15572;48.810;9.148;2023-05-25T17:05:41;98539.06;;;21.83;47.87
28312;BME280;15572;48.810;9.148;2023-05-25T17:10:38;98543.75;;;21.83;48.50
28312;BME280;15572;48.810;9.148;2023-05-25T17:15:36;98553.25;;;21.70;47.44
28312;BME280;15572;48.810;9.148;2023-05-25T17:20:32;98551.94;;;21.51;47.94
28312;BME280;15572;48.810;9.148;2023-05-25T17:25:28;98565.91;;;21.45;48.17
28312;BME280;15572;48.810;9.148;2023-05-25T17:30:25;98553.50;;;21.42;48.65
28312;BME280;15572;48.810;9.148;2023-05-25T17:35:23;98556.19;;;21.37;48.49
28312;BME280;15572;48.810;9.148;2023-05-25T17:40:19;98552.81;;;21.30;48.38
28312;BME280;15572;48.810;9.148;2023-05-25T17:45:16;98547.50;;;21.23;48.47
28312;BME280;15572;48.810;9.148;2023-05-25T17:50:12;98559.88;;;21.21;48.92
28312;BME280;15572;48.810;9.148;2023-05-25T17:55:10;98557.28;;;21.14;48.72
28312;BME280;15572;48.810;9.148;2023-05-25T18:00:07;98556.53;;;21.02;48.59
28312;BME280;15572;48.810;9.148;2023-05-25T18:05:04;98566.66;;;20.96;48.54
28312;BME280;15572;48.810;9.148;2023-05-25T18:10:01;98571.19;;;20.86;48.82
28312;BME280;15572;48.810;9.148;2023-05-25T18:14:59;98571.88;;;20.76;49.18
28312;BME280;15572;48.810;9.148;2023-05-25T18:19:55;98572.63;;;20.72;49.28
28312;BME280;15572;48.810;9.148;2023-05-25T18:24:52;98578.78;;;20.62;49.60
28312;BME280;15572;48.810;9.148;2023-05-25T18:29:48;98577.91;;;20.56;49.52
28312;BME280;15572;48.810;9.148;2023-05-25T18:34:46;98579.66;;;20.46;49.71
28312;BME280;15572;48.810;9.148;2023-05-25T18:39:43;98589.19;;;20.27;50.03
28312;BME280;15572;48.810;9.148;2023-05-25T18:44:39;98597.78;;;20.13;50.65
28312;BME280;15572;48.810;9.148;2023-05-25T18:49:36;98593.09;;;19.97;51.16
28312;BME280;15572;48.810;9.148;2023-05-25T18:54:34;98591.72;;;19.83;51.72
28312;BME280;15572;48.810;9.148;2023-05-25T18:59:30;98592.28;;;19.68;52.46
28312;BME280;15572;48.810;9.148;2023-05-25T19:04:27;98591.75;;;19.55;52.76
28312;BME280;15572;48.810;9.148;2023-05-25T19:09:24;98599.16;;;19.43;53.36
28312;BME280;15572;48.810;9.148;2023-05-25T19:14:22;98601.31;;;19.29;54.21
28312;BME280;15572;48.810;9.148;2023-05-25T19:19:18;98603.84;;;19.19;54.78
28312;BME280;15572;48.810;9.148;2023-05-25T19:24:15;98615.44;;;19.09;54.85
28312;BME280;15572;48.810;9.148;2023-05-25T19:29:12;98616.53;;;18.97;55.56
28312;BME280;15572;48.810;9.148;2023-05-25T19:34:10;98621.94;;;18.80;56.57
28312;BME280;15572;48.810;9.148;2023-05-25T19:39:06;98625.72;;;18.67;57.47
28312;BME280;15572;48.810;9.148;2023-05-25T19:44:03;98628.31;;;18.50;58.22
28312;BME280;15572;48.810;9.148;2023-05-25T19:49:00;98628.69;;;18.42;58.69
28312;BME280;15572;48.810;9.148;2023-05-25T19:53:58;98632.94;;;18.27;59.22
28312;BME280;15572;48.810;9.148;2023-05-25T19:58:54;98630.13;;;18.03;60.50
28312;BME280;15572;48.810;9.148;2023-05-25T20:03:51;98642.19;;;17.84;61.72
28312;BME280;15572;48.810;9.148;2023-05-25T20:08:47;98645.59;;;17.68;62.68
28312;BME280;15572;48.810;9.148;2023-05-25T20:13:45;98652.97;;;17.49;64.11
28312;BME280;15572;48.810;9.148;2023-05-25T20:18:42;98648.03;;;17.40;64.71
28312;BME280;15572;48.810;9.148;2023-05-25T20:23:39;98644.84;;;17.24;65.42
28312;BME280;15572;48.810;9.148;2023-05-25T20:28:36;98654.34;;;17.04;67.24
28312;BME280;15572;48.810;9.148;2023-05-25T20:33:34;98657.06;;;16.86;68.94
28312;BME280;15572;48.810;9.148;2023-05-25T20:38:30;98663.16;;;16.63;70.70
28312;BME280;15572;48.810;9.148;2023-05-25T20:43:27;98665.47;;;16.34;72.84
28312;BME280;15572;48.810;9.148;2023-05-25T20:48:23;98666.38;;;15.97;75.13
28312;BME280;15572;48.810;9.148;2023-05-25T20:53:21;98666.25;;;15.79;76.87
28312;BME280;15572;48.810;9.148;2023-05-25T20:58:18;98667.44;;;15.51;79.46
28312;BME280;15572;48.810;9.148;2023-05-25T21:03:14;98669.59;;;15.30;81.02
28312;BME280;15572;48.810;9.148;2023-05-25T21:08:11;98667.59;;;14.99;83.08
28312;BME280;15572;48.810;9.148;2023-05-25T21:13:09;98671.81;;;14.88;84.70
28312;BME280;15572;48.810;9.148;2023-05-25T21:18:05;98667.84;;;14.71;85.38
28312;BME280;15572;48.810;9.148;2023-05-25T21:23:03;98674.13;;;14.65;85.10
28312;BME280;15572;48.810;9.148;2023-05-25T21:28:00;98674.16;;;14.52;87.06
28312;BME280;15572;48.810;9.148;2023-05-25T21:32:58;98671.63;;;14.44;88.87
28312;BME280;15572;48.810;9.148;2023-05-25T21:37:54;98671.81;;;14.36;88.96
28312;BME280;15572;48.810;9.148;2023-05-25T21:42:50;98678.94;;;14.30;89.27
28312;BME280;15572;48.810;9.148;2023-05-25T21:47:48;98676.22;;;14.23;89.68
28312;BME280;15572;48.810;9.148;2023-05-25T21:52:46;98688.34;;;14.14;91.24
28312;BME280;15572;48.810;9.148;2023-05-25T21:57:42;98701.09;;;14.07;91.77
28312;BME280;15572;48.810;9.148;2023-05-25T22:02:39;98697.31;;;14.02;92.05
28312;BME280;15572;48.810;9.148;2023-05-25T22:07:35;98699.19;;;13.88;93.13
28312;BME280;15572;48.810;9.148;2023-05-25T22:12:33;98695.41;;;13.89;92.38
28312;BME280;15572;48.810;9.148;2023-05-25T22:17:29;98695.41;;;13.89;93.01
28312;BME280;15572;48.810;9.148;2023-05-25T22:22:26;98705.66;;;13.80;93.52
28312;BME280;15572;48.810;9.148;2023-05-25T22:27:22;98701.63;;;13.70;94.40
28312;BME280;15572;48.810;9.148;2023-05-25T22:32:20;98711.47;;;13.71;94.42
28312;BME280;15572;48.810;9.148;2023-05-25T22:37:17;98712.94;;;13.67;95.33
28312;BME280;15572;48.810;9.148;2023-05-25T22:42:13;98718.97;;;13.56;95.41
28312;BME280;15572;48.810;9.148;2023-05-25T22:47:10;98720.22;;;13.60;96.10
28312;BME280;15572;48.810;9.148;2023-05-25T22:52:08;98714.72;;;13.46;97.50
28312;BME280;15572;48.810;9.148;2023-05-25T22:57:05;98716.78;;;13.38;98.00
28312;BME280;15572;48.810;9.148;2023-05-25T23:02:01;98713.41;;;13.29;98.25
28312;BME280;15572;48.810;9.148;2023-05-25T23:06:58;98721.94;;;13.26;98.49
28312;BME280;15572;48.810;9.148;2023-05-25T23:11:55;98718.63;;;13.31;97.87
28312;BME280;15572;48.810;9.148;2023-05-25T23:16:52;98722.88;;;13.46;96.45
28312;BME280;15572;48.810;9.148;2023-05-25T23:21:48;98714.31;;;13.49;95.52
28312;BME280;15572;48.810;9.148;2023-05-25T23:26:45;98721.25;;;13.59;95.06
28312;BME280;15572;48.810;9.148;2023-05-25T23:31:43;98724.41;;;13.62;94.16
28312;BME280;15572;48.810;9.148;2023-05-25T23:36:39;98718.16;;;13.62;93.76
28312;BME280;15572;48.810;9.148;2023-05-25T23:41:37;98722.75;;;13.61;93.15
28312;BME280;15572;48.810;9.148;2023-05-25T23:46:33;98722.28;;;13.58;93.24
28312;BME280;15572;48.810;9.148;2023-05-25T23:51:31;98722.91;;;13.53;93.45
28312;BME280;15572;48.810;9.148;2023-05-25T23:56:27;98728.31;;;13.46;93.59
